sensor_id;sensor_type;location;lat;lon;timestamp;P1;durP1;ratioP1;P2;durP2;ratioP2
75320;SDS011;68337;52.196;5.660;2023-04-09T00:01:41;46.92;;;28.67;;
75320;SDS011;68337;52.196;5.660;2023-04-09T00:04:06;45.92;;;27.80;;
75320;SDS011;68337;52.196;5.660;2023-04-09T00:06:32;51.05;;;30.25;;
75320;SDS011;68337;52.196;5.660;2023-04-09T00:08:58;49.78;;;28.70;;
75320;SDS011;68337;52.196;5.660;2023-04-09T00:11:23;48.88;;;28.92;;
75320;SDS011;68337;52.196;5.660;2023-04-09T00:13:49;45.75;;;26.90;;
75320;SDS011;68337;52.196;5.660;2023-04-09T00:16:15;52.72;;;27.95;;
75320;SDS011;68337;52.196;5.660;2023-04-09T00:18:41;46.63;;;27.30;;
75320;SDS011;68337;52.196;5.660;2023-04-09T00:21:07;50.53;;;29.67;;
75320;SDS011;68337;52.196;5.660;2023-04-09T00:23:33;44.25;;;27.02;;
75320;SDS011;68337;52.196;5.660;2023-04-09T00:25:59;48.83;;;28.80;;
75320;SDS011;68337;52.196;5.660;2023-04-09T00:28:25;50.40;;;29.00;;
75320;SDS011;68337;52.196;5.660;2023-04-09T00:30:51;48.53;;;27.25;;
75320;SDS011;68337;52.196;5.660;2023-04-09T00:33:16;51.65;;;28.85;;
75320;SDS011;68337;52.196;5.660;2023-04-09T00:35:42;47.33;;;28.23;;
75320;SDS011;68337;52.196;5.660;2023-04-09T00:38:08;46.67;;;27.73;;
75320;SDS011;68337;52.196;5.660;2023-04-09T00:40:33;44.58;;;26.60;;
75320;SDS011;68337;52.196;5.660;2023-04-09T00:42:59;47.88;;;28.40;;
75320;SDS011;68337;52.196;5.660;2023-04-09T00:45:26;48.83;;;28.95;;
75320;SDS011;68337;52.196;5.660;2023-04-09T00:47:52;44.65;;;27.60;;
75320;SDS011;68337;52.196;5.660;2023-04-09T00:50:17;49.83;;;29.83;;
75320;SDS011;68337;52.196;5.660;2023-04-09T00:52:43;48.47;;;28.33;;
75320;SDS011;68337;52.196;5.660;2023-04-09T00:55:09;51.70;;;30.25;;
75320;SDS011;68337;52.196;5.660;2023-04-09T00:57:36;47.63;;;28.05;;
75320;SDS011;68337;52.196;5.660;2023-04-09T01:00:02;46.80;;;28.38;;
75320;SDS011;68337;52.196;5.660;2023-04-09T01:02:28;50.88;;;29.92;;
75320;SDS011;68337;52.196;5.660;2023-04-09T01:04:55;51.72;;;29.65;;
75320;SDS011;68337;52.196;5.660;2023-04-09T01:10:27;54.40;;;32.17;;
75320;SDS011;68337;52.196;5.660;2023-04-09T01:15:42;50.20;;;30.30;;
75320;SDS011;68337;52.196;5.660;2023-04-09T01:18:28;46.97;;;28.83;;
75320;SDS011;68337;52.196;5.660;2023-04-09T01:21:01;49.20;;;31.17;;
75320;SDS011;68337;52.196;5.660;2023-04-09T01:27:18;47.15;;;28.15;;
75320;SDS011;68337;52.196;5.660;2023-04-09T01:29:32;47.03;;;28.42;;
75320;SDS011;68337;52.196;5.660;2023-04-09T01:32:02;44.28;;;27.55;;
75320;SDS011;68337;52.196;5.660;2023-04-09T01:34:29;47.20;;;28.33;;
75320;SDS011;68337;52.196;5.660;2023-04-09T01:36:56;48.28;;;28.88;;
75320;SDS011;68337;52.196;5.660;2023-04-09T01:39:23;48.35;;;27.80;;
75320;SDS011;68337;52.196;5.660;2023-04-09T01:41:50;51.20;;;28.15;;
75320;SDS011;68337;52.196;5.660;2023-04-09T01:44:17;47.95;;;27.30;;
75320;SDS011;68337;52.196;5.660;2023-04-09T01:46:45;46.17;;;27.45;;
75320;SDS011;68337;52.196;5.660;2023-04-09T01:49:12;45.70;;;28.38;;
75320;SDS011;68337;52.196;5.660;2023-04-09T01:51:39;46.40;;;27.80;;
75320;SDS011;68337;52.196;5.660;2023-04-09T01:54:06;49.60;;;28.58;;
75320;SDS011;68337;52.196;5.660;2023-04-09T01:56:45;45.58;;;27.65;;
75320;SDS011;68337;52.196;5.660;2023-04-09T01:59:12;47.45;;;27.70;;
75320;SDS011;68337;52.196;5.660;2023-04-09T02:01:40;43.70;;;25.42;;
75320;SDS011;68337;52.196;5.660;2023-04-09T02:04:10;44.40;;;26.88;;
75320;SDS011;68337;52.196;5.660;2023-04-09T02:09:30;47.17;;;27.92;;
75320;SDS011;68337;52.196;5.660;2023-04-09T02:11:58;47.60;;;28.50;;
75320;SDS011;68337;52.196;5.660;2023-04-09T02:14:27;44.30;;;26.70;;
75320;SDS011;68337;52.196;5.660;2023-04-09T02:16:55;44.75;;;27.75;;
75320;SDS011;68337;52.196;5.660;2023-04-09T02:19:21;45.92;;;27.25;;
75320;SDS011;68337;52.196;5.660;2023-04-09T02:21:46;49.45;;;29.98;;
75320;SDS011;68337;52.196;5.660;2023-04-09T02:24:12;41.33;;;26.05;;
75320;SDS011;68337;52.196;5.660;2023-04-09T02:26:38;44.95;;;28.48;;
75320;SDS011;68337;52.196;5.660;2023-04-09T02:29:03;45.55;;;27.20;;
75320;SDS011;68337;52.196;5.660;2023-04-09T02:31:29;39.92;;;25.23;;
75320;SDS011;68337;52.196;5.660;2023-04-09T02:33:55;45.88;;;26.63;;
75320;SDS011;68337;52.196;5.660;2023-04-09T02:36:20;46.58;;;26.80;;
75320;SDS011;68337;52.196;5.660;2023-04-09T02:38:46;47.80;;;28.30;;
75320;SDS011;68337;52.196;5.660;2023-04-09T02:41:12;45.33;;;27.92;;
75320;SDS011;68337;52.196;5.660;2023-04-09T02:43:38;45.63;;;26.63;;
75320;SDS011;68337;52.196;5.660;2023-04-09T02:46:03;42.92;;;27.20;;
75320;SDS011;68337;52.196;5.660;2023-04-09T02:48:29;42.22;;;25.98;;
75320;SDS011;68337;52.196;5.660;2023-04-09T02:50:55;48.35;;;28.50;;
75320;SDS011;68337;52.196;5.660;2023-04-09T02:53:21;40.40;;;26.00;;
75320;SDS011;68337;52.196;5.660;2023-04-09T02:55:47;44.20;;;26.77;;
75320;SDS011;68337;52.196;5.660;2023-04-09T02:58:13;41.63;;;26.95;;
75320;SDS011;68337;52.196;5.660;2023-04-09T03:00:38;39.65;;;26.25;;
75320;SDS011;68337;52.196;5.660;2023-04-09T03:03:04;43.83;;;26.83;;
75320;SDS011;68337;52.196;5.660;2023-04-09T03:05:30;39.70;;;25.77;;
75320;SDS011;68337;52.196;5.660;2023-04-09T03:07:55;43.90;;;27.00;;
75320;SDS011;68337;52.196;5.660;2023-04-09T03:10:21;50.15;;;29.25;;
75320;SDS011;68337;52.196;5.660;2023-04-09T03:12:47;45.03;;;28.08;;
75320;SDS011;68337;52.196;5.660;2023-04-09T03:15:13;42.50;;;25.90;;
75320;SDS011;68337;52.196;5.660;2023-04-09T03:17:38;43.67;;;26.85;;
75320;SDS011;68337;52.196;5.660;2023-04-09T03:20:05;44.47;;;27.13;;
75320;SDS011;68337;52.196;5.660;2023-04-09T03:22:37;47.20;;;27.25;;
75320;SDS011;68337;52.196;5.660;2023-04-09T03:25:03;40.58;;;26.20;;
75320;SDS011;68337;52.196;5.660;2023-04-09T03:27:30;39.10;;;25.30;;
75320;SDS011;68337;52.196;5.660;2023-04-09T03:29:56;40.63;;;26.10;;
75320;SDS011;68337;52.196;5.660;2023-04-09T03:32:22;44.42;;;26.15;;
75320;SDS011;68337;52.196;5.660;2023-04-09T03:34:48;45.92;;;28.60;;
75320;SDS011;68337;52.196;5.660;2023-04-09T03:37:13;44.53;;;27.52;;
75320;SDS011;68337;52.196;5.660;2023-04-09T03:39:39;44.35;;;28.00;;
75320;SDS011;68337;52.196;5.660;2023-04-09T03:42:05;43.75;;;27.23;;
75320;SDS011;68337;52.196;5.660;2023-04-09T03:44:31;41.22;;;24.70;;
75320;SDS011;68337;52.196;5.660;2023-04-09T03:46:57;48.03;;;28.35;;
75320;SDS011;68337;52.196;5.660;2023-04-09T03:49:22;40.50;;;25.27;;
75320;SDS011;68337;52.196;5.660;2023-04-09T03:51:48;39.55;;;26.73;;
75320;SDS011;68337;52.196;5.660;2023-04-09T03:54:14;39.40;;;25.17;;
75320;SDS011;68337;52.196;5.660;2023-04-09T03:56:40;41.55;;;26.05;;
75320;SDS011;68337;52.196;5.660;2023-04-09T03:59:05;38.38;;;25.05;;
75320;SDS011;68337;52.196;5.660;2023-04-09T04:01:31;44.08;;;26.00;;
75320;SDS011;68337;52.196;5.660;2023-04-09T04:03:57;38.13;;;24.35;;
75320;SDS011;68337;52.196;5.660;2023-04-09T04:06:23;39.17;;;25.90;;
75320;SDS011;68337;52.196;5.660;2023-04-09T04:08:48;35.10;;;23.75;;
75320;SDS011;68337;52.196;5.660;2023-04-09T04:11:14;39.38;;;24.58;;
75320;SDS011;68337;52.196;5.660;2023-04-09T04:13:40;38.58;;;25.30;;
75320;SDS011;68337;52.196;5.660;2023-04-09T04:16:06;39.05;;;25.20;;
75320;SDS011;68337;52.196;5.660;2023-04-09T04:18:33;38.92;;;24.95;;
75320;SDS011;68337;52.196;5.660;2023-04-09T04:20:59;34.83;;;23.02;;
75320;SDS011;68337;52.196;5.660;2023-04-09T04:23:25;40.90;;;24.27;;
75320;SDS011;68337;52.196;5.660;2023-04-09T04:25:50;36.70;;;23.90;;
75320;SDS011;68337;52.196;5.660;2023-04-09T04:28:17;37.20;;;23.27;;
75320;SDS011;68337;52.196;5.660;2023-04-09T04:30:43;38.38;;;24.55;;
75320;SDS011;68337;52.196;5.660;2023-04-09T04:33:08;35.67;;;23.65;;
75320;SDS011;68337;52.196;5.660;2023-04-09T04:35:34;33.67;;;23.10;;
75320;SDS011;68337;52.196;5.660;2023-04-09T04:38:00;36.97;;;23.40;;
75320;SDS011;68337;52.196;5.660;2023-04-09T04:40:25;36.33;;;24.35;;
75320;SDS011;68337;52.196;5.660;2023-04-09T04:42:51;40.17;;;25.75;;
75320;SDS011;68337;52.196;5.660;2023-04-09T04:45:17;36.60;;;23.75;;
75320;SDS011;68337;52.196;5.660;2023-04-09T04:47:42;34.53;;;21.80;;
75320;SDS011;68337;52.196;5.660;2023-04-09T04:50:08;33.88;;;21.45;;
75320;SDS011;68337;52.196;5.660;2023-04-09T04:52:35;35.13;;;22.35;;
75320;SDS011;68337;52.196;5.660;2023-04-09T04:55:01;33.50;;;23.02;;
75320;SDS011;68337;52.196;5.660;2023-04-09T04:57:27;32.47;;;22.48;;
75320;SDS011;68337;52.196;5.660;2023-04-09T04:59:52;37.17;;;24.30;;
75320;SDS011;68337;52.196;5.660;2023-04-09T05:02:18;34.50;;;23.08;;
75320;SDS011;68337;52.196;5.660;2023-04-09T05:04:44;36.08;;;23.73;;
75320;SDS011;68337;52.196;5.660;2023-04-09T05:07:09;38.33;;;22.58;;
75320;SDS011;68337;52.196;5.660;2023-04-09T05:09:35;32.60;;;22.80;;
75320;SDS011;68337;52.196;5.660;2023-04-09T05:12:01;37.67;;;23.75;;
75320;SDS011;68337;52.196;5.660;2023-04-09T05:14:26;34.03;;;22.98;;
75320;SDS011;68337;52.196;5.660;2023-04-09T05:16:52;39.47;;;23.48;;
75320;SDS011;68337;52.196;5.660;2023-04-09T05:19:18;43.03;;;27.35;;
75320;SDS011;68337;52.196;5.660;2023-04-09T05:21:44;40.90;;;26.17;;
75320;SDS011;68337;52.196;5.660;2023-04-09T05:24:09;41.55;;;26.33;;
75320;SDS011;68337;52.196;5.660;2023-04-09T05:26:35;39.97;;;24.75;;
75320;SDS011;68337;52.196;5.660;2023-04-09T05:29:01;41.00;;;25.30;;
75320;SDS011;68337;52.196;5.660;2023-04-09T05:31:26;41.70;;;24.42;;
75320;SDS011;68337;52.196;5.660;2023-04-09T05:33:52;44.03;;;25.52;;
75320;SDS011;68337;52.196;5.660;2023-04-09T05:36:18;38.25;;;26.73;;
75320;SDS011;68337;52.196;5.660;2023-04-09T05:38:46;43.08;;;26.73;;
75320;SDS011;68337;52.196;5.660;2023-04-09T05:41:12;40.70;;;25.88;;
75320;SDS011;68337;52.196;5.660;2023-04-09T05:43:38;35.75;;;23.55;;
75320;SDS011;68337;52.196;5.660;2023-04-09T05:46:04;39.85;;;26.63;;
75320;SDS011;68337;52.196;5.660;2023-04-09T05:48:31;41.08;;;26.40;;
75320;SDS011;68337;52.196;5.660;2023-04-09T05:50:59;47.78;;;27.63;;
75320;SDS011;68337;52.196;5.660;2023-04-09T05:53:25;37.67;;;25.08;;
75320;SDS011;68337;52.196;5.660;2023-04-09T05:55:50;40.63;;;26.52;;
75320;SDS011;68337;52.196;5.660;2023-04-09T05:58:16;40.85;;;24.58;;
75320;SDS011;68337;52.196;5.660;2023-04-09T06:00:43;40.42;;;25.33;;
75320;SDS011;68337;52.196;5.660;2023-04-09T06:03:09;39.17;;;24.98;;
75320;SDS011;68337;52.196;5.660;2023-04-09T06:05:34;39.97;;;24.52;;
75320;SDS011;68337;52.196;5.660;2023-04-09T06:08:00;39.65;;;24.17;;
75320;SDS011;68337;52.196;5.660;2023-04-09T06:10:26;43.60;;;25.75;;
75320;SDS011;68337;52.196;5.660;2023-04-09T06:12:52;40.88;;;25.70;;
75320;SDS011;68337;52.196;5.660;2023-04-09T06:15:18;38.10;;;24.25;;
75320;SDS011;68337;52.196;5.660;2023-04-09T06:17:44;35.10;;;23.67;;
75320;SDS011;68337;52.196;5.660;2023-04-09T06:20:10;39.47;;;25.25;;
75320;SDS011;68337;52.196;5.660;2023-04-09T06:22:36;39.95;;;25.25;;
75320;SDS011;68337;52.196;5.660;2023-04-09T06:25:02;38.95;;;25.70;;
75320;SDS011;68337;52.196;5.660;2023-04-09T06:27:27;41.50;;;24.40;;
75320;SDS011;68337;52.196;5.660;2023-04-09T06:29:53;38.33;;;25.00;;
75320;SDS011;68337;52.196;5.660;2023-04-09T06:32:19;39.60;;;25.17;;
75320;SDS011;68337;52.196;5.660;2023-04-09T06:34:45;36.58;;;24.25;;
75320;SDS011;68337;52.196;5.660;2023-04-09T06:37:10;40.25;;;24.63;;
75320;SDS011;68337;52.196;5.660;2023-04-09T06:39:36;41.75;;;25.38;;
75320;SDS011;68337;52.196;5.660;2023-04-09T06:42:02;35.38;;;23.35;;
75320;SDS011;68337;52.196;5.660;2023-04-09T06:44:28;35.92;;;23.85;;
75320;SDS011;68337;52.196;5.660;2023-04-09T06:46:55;36.88;;;22.83;;
75320;SDS011;68337;52.196;5.660;2023-04-09T06:49:20;35.60;;;23.17;;
75320;SDS011;68337;52.196;5.660;2023-04-09T06:51:46;36.95;;;23.27;;
75320;SDS011;68337;52.196;5.660;2023-04-09T06:54:12;36.70;;;23.70;;
75320;SDS011;68337;52.196;5.660;2023-04-09T06:56:38;33.90;;;22.17;;
75320;SDS011;68337;52.196;5.660;2023-04-09T06:59:03;33.10;;;22.58;;
75320;SDS011;68337;52.196;5.660;2023-04-09T07:01:29;35.10;;;21.98;;
75320;SDS011;68337;52.196;5.660;2023-04-09T07:03:55;33.85;;;21.65;;
75320;SDS011;68337;52.196;5.660;2023-04-09T07:06:21;31.77;;;21.30;;
75320;SDS011;68337;52.196;5.660;2023-04-09T07:08:47;37.53;;;23.02;;
75320;SDS011;68337;52.196;5.660;2023-04-09T07:11:12;33.25;;;21.98;;
75320;SDS011;68337;52.196;5.660;2023-04-09T07:13:41;33.25;;;22.98;;
75320;SDS011;68337;52.196;5.660;2023-04-09T07:16:06;33.20;;;21.70;;
75320;SDS011;68337;52.196;5.660;2023-04-09T07:18:32;33.58;;;21.02;;
75320;SDS011;68337;52.196;5.660;2023-04-09T07:20:58;31.13;;;21.30;;
75320;SDS011;68337;52.196;5.660;2023-04-09T07:23:23;34.28;;;21.70;;
75320;SDS011;68337;52.196;5.660;2023-04-09T07:25:50;34.47;;;21.75;;
75320;SDS011;68337;52.196;5.660;2023-04-09T07:28:15;32.63;;;21.77;;
75320;SDS011;68337;52.196;5.660;2023-04-09T07:30:41;33.03;;;21.65;;
75320;SDS011;68337;52.196;5.660;2023-04-09T07:33:07;30.90;;;21.23;;
75320;SDS011;68337;52.196;5.660;2023-04-09T07:35:33;34.78;;;22.13;;
75320;SDS011;68337;52.196;5.660;2023-04-09T07:37:58;29.65;;;19.17;;
75320;SDS011;68337;52.196;5.660;2023-04-09T07:40:24;33.28;;;21.50;;
75320;SDS011;68337;52.196;5.660;2023-04-09T07:42:51;28.73;;;20.10;;
75320;SDS011;68337;52.196;5.660;2023-04-09T07:45:17;30.58;;;21.42;;
75320;SDS011;68337;52.196;5.660;2023-04-09T07:47:43;30.55;;;20.40;;
75320;SDS011;68337;52.196;5.660;2023-04-09T07:50:09;29.98;;;21.17;;
75320;SDS011;68337;52.196;5.660;2023-04-09T07:52:35;29.83;;;21.00;;
75320;SDS011;68337;52.196;5.660;2023-04-09T07:55:01;28.05;;;21.17;;
75320;SDS011;68337;52.196;5.660;2023-04-09T07:57:26;28.52;;;20.48;;
75320;SDS011;68337;52.196;5.660;2023-04-09T07:59:55;28.80;;;20.38;;
75320;SDS011;68337;52.196;5.660;2023-04-09T08:02:20;27.58;;;19.45;;
75320;SDS011;68337;52.196;5.660;2023-04-09T08:04:47;29.75;;;20.58;;
75320;SDS011;68337;52.196;5.660;2023-04-09T08:07:13;29.23;;;20.00;;
75320;SDS011;68337;52.196;5.660;2023-04-09T08:09:39;26.60;;;19.33;;
75320;SDS011;68337;52.196;5.660;2023-04-09T08:12:05;28.15;;;19.80;;
75320;SDS011;68337;52.196;5.660;2023-04-09T08:14:30;26.65;;;19.13;;
75320;SDS011;68337;52.196;5.660;2023-04-09T08:16:56;27.45;;;18.83;;
75320;SDS011;68337;52.196;5.660;2023-04-09T08:19:21;25.80;;;18.65;;
75320;SDS011;68337;52.196;5.660;2023-04-09T08:21:47;26.63;;;19.23;;
75320;SDS011;68337;52.196;5.660;2023-04-09T08:24:13;25.13;;;17.75;;
75320;SDS011;68337;52.196;5.660;2023-04-09T08:26:40;27.02;;;19.50;;
75320;SDS011;68337;52.196;5.660;2023-04-09T08:29:06;23.42;;;17.98;;
75320;SDS011;68337;52.196;5.660;2023-04-09T08:31:33;26.42;;;17.45;;
75320;SDS011;68337;52.196;5.660;2023-04-09T08:34:00;25.23;;;18.80;;
75320;SDS011;68337;52.196;5.660;2023-04-09T08:36:26;24.33;;;17.65;;
75320;SDS011;68337;52.196;5.660;2023-04-09T08:38:52;21.92;;;15.60;;
75320;SDS011;68337;52.196;5.660;2023-04-09T08:41:20;20.67;;;14.98;;
75320;SDS011;68337;52.196;5.660;2023-04-09T08:43:50;25.75;;;16.67;;
75320;SDS011;68337;52.196;5.660;2023-04-09T08:46:19;22.55;;;16.65;;
75320;SDS011;68337;52.196;5.660;2023-04-09T08:48:46;22.42;;;16.73;;
75320;SDS011;68337;52.196;5.660;2023-04-09T08:51:14;25.85;;;15.68;;
75320;SDS011;68337;52.196;5.660;2023-04-09T08:53:47;22.77;;;16.55;;
75320;SDS011;68337;52.196;5.660;2023-04-09T08:56:17;22.02;;;16.23;;
75320;SDS011;68337;52.196;5.660;2023-04-09T08:58:45;27.15;;;16.58;;
75320;SDS011;68337;52.196;5.660;2023-04-09T09:01:24;21.67;;;15.65;;
75320;SDS011;68337;52.196;5.660;2023-04-09T09:03:52;20.90;;;15.40;;
75320;SDS011;68337;52.196;5.660;2023-04-09T09:06:21;20.65;;;15.80;;
75320;SDS011;68337;52.196;5.660;2023-04-09T09:09:04;20.20;;;15.25;;
75320;SDS011;68337;52.196;5.660;2023-04-09T09:11:30;20.85;;;16.15;;
75320;SDS011;68337;52.196;5.660;2023-04-09T09:14:00;20.10;;;14.93;;
75320;SDS011;68337;52.196;5.660;2023-04-09T09:16:28;19.58;;;14.50;;
75320;SDS011;68337;52.196;5.660;2023-04-09T09:18:56;22.58;;;15.90;;
75320;SDS011;68337;52.196;5.660;2023-04-09T09:21:22;17.73;;;13.35;;
75320;SDS011;68337;52.196;5.660;2023-04-09T09:23:51;19.65;;;13.13;;
75320;SDS011;68337;52.196;5.660;2023-04-09T09:26:20;15.98;;;12.57;;
75320;SDS011;68337;52.196;5.660;2023-04-09T09:28:50;13.32;;;10.43;;
75320;SDS011;68337;52.196;5.660;2023-04-09T09:31:17;15.30;;;11.43;;
75320;SDS011;68337;52.196;5.660;2023-04-09T09:33:44;17.92;;;12.50;;
75320;SDS011;68337;52.196;5.660;2023-04-09T09:36:10;14.38;;;11.73;;
75320;SDS011;68337;52.196;5.660;2023-04-09T09:38:55;17.00;;;12.45;;
75320;SDS011;68337;52.196;5.660;2023-04-09T09:41:22;27.63;;;21.95;;
75320;SDS011;68337;52.196;5.660;2023-04-09T09:43:48;24.42;;;17.42;;
75320;SDS011;68337;52.196;5.660;2023-04-09T09:46:15;14.52;;;11.82;;
75320;SDS011;68337;52.196;5.660;2023-04-09T09:48:42;13.90;;;11.82;;
75320;SDS011;68337;52.196;5.660;2023-04-09T09:51:09;15.23;;;11.88;;
75320;SDS011;68337;52.196;5.660;2023-04-09T09:53:37;16.05;;;12.57;;
75320;SDS011;68337;52.196;5.660;2023-04-09T09:56:05;16.27;;;12.00;;
75320;SDS011;68337;52.196;5.660;2023-04-09T09:58:47;16.85;;;11.63;;
75320;SDS011;68337;52.196;5.660;2023-04-09T10:01:18;15.25;;;12.60;;
75320;SDS011;68337;52.196;5.660;2023-04-09T10:03:46;19.13;;;13.52;;
75320;SDS011;68337;52.196;5.660;2023-04-09T10:06:15;20.75;;;15.88;;
75320;SDS011;68337;52.196;5.660;2023-04-09T10:08:41;17.77;;;14.45;;
75320;SDS011;68337;52.196;5.660;2023-04-09T10:11:09;15.55;;;12.13;;
75320;SDS011;68337;52.196;5.660;2023-04-09T10:13:38;21.10;;;14.68;;
75320;SDS011;68337;52.196;5.660;2023-04-09T10:16:15;122.38;;;61.10;;
75320;SDS011;68337;52.196;5.660;2023-04-09T10:18:41;63.63;;;36.83;;
75320;SDS011;68337;52.196;5.660;2023-04-09T10:24:00;45.42;;;29.83;;
75320;SDS011;68337;52.196;5.660;2023-04-09T10:26:31;24.17;;;17.67;;
75320;SDS011;68337;52.196;5.660;2023-04-09T10:29:11;62.92;;;39.70;;
75320;SDS011;68337;52.196;5.660;2023-04-09T10:31:50;30.75;;;21.48;;
75320;SDS011;68337;52.196;5.660;2023-04-09T10:34:21;40.22;;;28.80;;
75320;SDS011;68337;52.196;5.660;2023-04-09T10:36:49;46.20;;;32.65;;
75320;SDS011;68337;52.196;5.660;2023-04-09T10:39:28;17.55;;;13.70;;
75320;SDS011;68337;52.196;5.660;2023-04-09T10:41:56;25.58;;;19.17;;
75320;SDS011;68337;52.196;5.660;2023-04-09T10:44:27;28.85;;;21.77;;
75320;SDS011;68337;52.196;5.660;2023-04-09T10:46:56;23.83;;;18.33;;
75320;SDS011;68337;52.196;5.660;2023-04-09T10:49:23;21.52;;;15.57;;
75320;SDS011;68337;52.196;5.660;2023-04-09T10:54:47;132.20;;;60.20;;
75320;SDS011;68337;52.196;5.660;2023-04-09T10:57:15;148.32;;;71.82;;
75320;SDS011;68337;52.196;5.660;2023-04-09T10:59:46;94.35;;;51.78;;
75320;SDS011;68337;52.196;5.660;2023-04-09T11:10:41;12.10;;;10.20;;
75320;SDS011;68337;52.196;5.660;2023-04-09T11:13:11;12.75;;;10.05;;
75320;SDS011;68337;52.196;5.660;2023-04-09T11:15:39;10.55;;;8.75;;
75320;SDS011;68337;52.196;5.660;2023-04-09T11:18:05;14.50;;;11.52;;
75320;SDS011;68337;52.196;5.660;2023-04-09T11:20:33;15.15;;;11.65;;
75320;SDS011;68337;52.196;5.660;2023-04-09T11:22:59;15.18;;;11.52;;
75320;SDS011;68337;52.196;5.660;2023-04-09T11:25:29;13.60;;;11.02;;
75320;SDS011;68337;52.196;5.660;2023-04-09T11:27:56;12.95;;;10.60;;
75320;SDS011;68337;52.196;5.660;2023-04-09T11:30:22;13.48;;;11.10;;
75320;SDS011;68337;52.196;5.660;2023-04-09T11:32:48;14.45;;;11.27;;
75320;SDS011;68337;52.196;5.660;2023-04-09T11:35:15;12.02;;;10.32;;
75320;SDS011;68337;52.196;5.660;2023-04-09T11:37:45;12.02;;;10.18;;
75320;SDS011;68337;52.196;5.660;2023-04-09T11:42:51;14.48;;;11.35;;
75320;SDS011;68337;52.196;5.660;2023-04-09T11:45:18;13.70;;;11.02;;
75320;SDS011;68337;52.196;5.660;2023-04-09T11:47:46;14.10;;;11.32;;
75320;SDS011;68337;52.196;5.660;2023-04-09T11:50:13;15.13;;;11.93;;
75320;SDS011;68337;52.196;5.660;2023-04-09T11:52:40;11.38;;;10.18;;
75320;SDS011;68337;52.196;5.660;2023-04-09T11:55:06;14.20;;;10.60;;
75320;SDS011;68337;52.196;5.660;2023-04-09T11:57:42;13.52;;;11.27;;
75320;SDS011;68337;52.196;5.660;2023-04-09T12:02:38;13.50;;;10.95;;
75320;SDS011;68337;52.196;5.660;2023-04-09T12:05:10;13.48;;;11.05;;
75320;SDS011;68337;52.196;5.660;2023-04-09T12:07:38;12.68;;;10.40;;
75320;SDS011;68337;52.196;5.660;2023-04-09T12:10:05;13.93;;;10.95;;
75320;SDS011;68337;52.196;5.660;2023-04-09T12:12:41;10.35;;;9.23;;
75320;SDS011;68337;52.196;5.660;2023-04-09T12:15:22;11.40;;;9.15;;
75320;SDS011;68337;52.196;5.660;2023-04-09T12:17:53;11.15;;;9.98;;
75320;SDS011;68337;52.196;5.660;2023-04-09T12:20:32;12.70;;;9.95;;
75320;SDS011;68337;52.196;5.660;2023-04-09T12:23:00;14.23;;;11.32;;
75320;SDS011;68337;52.196;5.660;2023-04-09T12:25:28;11.07;;;9.23;;
75320;SDS011;68337;52.196;5.660;2023-04-09T12:27:55;13.27;;;10.60;;
75320;SDS011;68337;52.196;5.660;2023-04-09T12:30:21;13.75;;;11.70;;
75320;SDS011;68337;52.196;5.660;2023-04-09T12:32:48;13.77;;;11.27;;
75320;SDS011;68337;52.196;5.660;2023-04-09T12:35:14;13.57;;;10.73;;
75320;SDS011;68337;52.196;5.660;2023-04-09T12:37:41;13.95;;;10.65;;
75320;SDS011;68337;52.196;5.660;2023-04-09T12:40:07;11.20;;;9.32;;
75320;SDS011;68337;52.196;5.660;2023-04-09T12:42:33;11.50;;;9.23;;
75320;SDS011;68337;52.196;5.660;2023-04-09T12:44:59;11.90;;;9.80;;
75320;SDS011;68337;52.196;5.660;2023-04-09T12:47:25;13.45;;;10.50;;
75320;SDS011;68337;52.196;5.660;2023-04-09T12:49:52;13.30;;;10.85;;
75320;SDS011;68337;52.196;5.660;2023-04-09T12:52:18;11.20;;;9.75;;
75320;SDS011;68337;52.196;5.660;2023-04-09T12:54:44;13.60;;;10.30;;
75320;SDS011;68337;52.196;5.660;2023-04-09T12:57:10;10.30;;;9.10;;
75320;SDS011;68337;52.196;5.660;2023-04-09T12:59:36;10.13;;;9.07;;
75320;SDS011;68337;52.196;5.660;2023-04-09T13:02:02;11.38;;;9.90;;
75320;SDS011;68337;52.196;5.660;2023-04-09T13:04:27;10.68;;;8.93;;
75320;SDS011;68337;52.196;5.660;2023-04-09T13:06:53;10.70;;;9.60;;
75320;SDS011;68337;52.196;5.660;2023-04-09T13:09:19;12.15;;;9.55;;
75320;SDS011;68337;52.196;5.660;2023-04-09T13:11:45;10.70;;;8.85;;
75320;SDS011;68337;52.196;5.660;2023-04-09T13:14:10;10.70;;;8.65;;
75320;SDS011;68337;52.196;5.660;2023-04-09T13:16:38;9.98;;;8.75;;
75320;SDS011;68337;52.196;5.660;2023-04-09T13:19:08;10.52;;;8.85;;
75320;SDS011;68337;52.196;5.660;2023-04-09T13:21:34;9.48;;;8.48;;
75320;SDS011;68337;52.196;5.660;2023-04-09T13:24:01;10.30;;;9.07;;
75320;SDS011;68337;52.196;5.660;2023-04-09T13:26:28;10.10;;;9.02;;
75320;SDS011;68337;52.196;5.660;2023-04-09T13:28:54;10.63;;;8.98;;
75320;SDS011;68337;52.196;5.660;2023-04-09T13:31:20;11.05;;;8.63;;
75320;SDS011;68337;52.196;5.660;2023-04-09T13:33:46;11.73;;;7.85;;
75320;SDS011;68337;52.196;5.660;2023-04-09T13:36:11;9.98;;;8.48;;
75320;SDS011;68337;52.196;5.660;2023-04-09T13:38:37;9.10;;;7.85;;
75320;SDS011;68337;52.196;5.660;2023-04-09T13:41:03;9.00;;;7.70;;
75320;SDS011;68337;52.196;5.660;2023-04-09T13:43:29;10.07;;;8.00;;
75320;SDS011;68337;52.196;5.660;2023-04-09T13:45:55;9.80;;;7.60;;
75320;SDS011;68337;52.196;5.660;2023-04-09T13:48:22;9.68;;;8.32;;
75320;SDS011;68337;52.196;5.660;2023-04-09T13:50:48;10.82;;;8.70;;
75320;SDS011;68337;52.196;5.660;2023-04-09T13:53:14;10.45;;;8.95;;
75320;SDS011;68337;52.196;5.660;2023-04-09T13:55:40;8.77;;;7.68;;
75320;SDS011;68337;52.196;5.660;2023-04-09T13:58:06;7.47;;;6.75;;
75320;SDS011;68337;52.196;5.660;2023-04-09T14:00:31;7.88;;;6.97;;
75320;SDS011;68337;52.196;5.660;2023-04-09T14:02:58;10.00;;;7.72;;
75320;SDS011;68337;52.196;5.660;2023-04-09T14:05:24;8.50;;;7.38;;
75320;SDS011;68337;52.196;5.660;2023-04-09T14:07:50;9.23;;;7.82;;
75320;SDS011;68337;52.196;5.660;2023-04-09T14:10:15;10.05;;;8.65;;
75320;SDS011;68337;52.196;5.660;2023-04-09T14:12:41;10.20;;;9.13;;
75320;SDS011;68337;52.196;5.660;2023-04-09T14:15:07;10.23;;;9.00;;
75320;SDS011;68337;52.196;5.660;2023-04-09T14:17:34;10.68;;;9.02;;
75320;SDS011;68337;52.196;5.660;2023-04-09T14:20:00;10.43;;;8.85;;
75320;SDS011;68337;52.196;5.660;2023-04-09T14:22:27;12.68;;;8.95;;
75320;SDS011;68337;52.196;5.660;2023-04-09T14:24:53;11.25;;;8.50;;
75320;SDS011;68337;52.196;5.660;2023-04-09T14:27:19;11.45;;;9.30;;
75320;SDS011;68337;52.196;5.660;2023-04-09T14:29:45;11.52;;;9.27;;
75320;SDS011;68337;52.196;5.660;2023-04-09T14:32:10;11.30;;;8.70;;
75320;SDS011;68337;52.196;5.660;2023-04-09T14:34:36;12.85;;;10.27;;
75320;SDS011;68337;52.196;5.660;2023-04-09T14:37:02;11.65;;;9.43;;
75320;SDS011;68337;52.196;5.660;2023-04-09T14:39:28;13.75;;;10.60;;
75320;SDS011;68337;52.196;5.660;2023-04-09T14:41:54;12.20;;;9.70;;
75320;SDS011;68337;52.196;5.660;2023-04-09T14:44:21;14.95;;;10.88;;
75320;SDS011;68337;52.196;5.660;2023-04-09T14:46:49;11.30;;;10.02;;
75320;SDS011;68337;52.196;5.660;2023-04-09T14:49:16;13.52;;;10.15;;
75320;SDS011;68337;52.196;5.660;2023-04-09T14:51:42;12.20;;;10.45;;
75320;SDS011;68337;52.196;5.660;2023-04-09T14:54:08;12.27;;;10.30;;